createdAt,value
2022-07-28T00:01:25.495Z,100463.02
2022-07-28T00:03:54.171Z,100463.25
2022-07-28T00:06:22.693Z,100460.24
2022-07-28T00:08:51.263Z,100459.55
2022-07-28T00:11:19.757Z,100459.13
2022-07-28T00:13:48.305Z,100459.82
2022-07-28T00:16:17.056Z,100456.23
2022-07-28T00:18:45.706Z,100457.56
2022-07-28T00:21:14.302Z,100459.20
2022-07-28T00:23:42.920Z,100456.11
2022-07-28T00:26:12.669Z,100459.16
2022-07-28T00:28:41.225Z,100459.10
2022-07-28T00:31:09.808Z,100458.60
2022-07-28T00:33:40.280Z,100467.14
2022-07-28T00:36:11.746Z,100467.70
2022-07-28T00:38:44.289Z,100471.73
2022-07-28T00:41:14.523Z,100471.02
2022-07-28T00:43:46.740Z,100470.72
2022-07-28T00:46:18.553Z,100463.96
2022-07-28T00:48:53.624Z,100464.77
2022-07-28T00:51:25.393Z,100458.60
2022-07-28T00:53:55.112Z,100458.70
2022-07-28T00:56:24.359Z,100461.56
2022-07-28T00:58:53.331Z,100460.34
2022-07-28T01:01:22.852Z,100458.89
2022-07-28T01:03:59.856Z,100462.30
2022-07-28T01:06:53.731Z,100461.13
2022-07-28T01:09:52.945Z,100462.96
2022-07-28T01:12:51.395Z,100470.77
2022-07-28T01:15:37.953Z,100468.06
2022-07-28T01:18:21.511Z,100467.85
2022-07-28T01:20:59.402Z,100471.86
2022-07-28T01:23:32.313Z,100472.11
2022-07-28T01:26:39.780Z,100470.88
2022-07-28T01:29:37.237Z,100473.96
2022-07-28T01:32:19.201Z,100470.61
2022-07-28T01:35:06.028Z,100479.39
2022-07-28T01:37:39.894Z,100480.92
2022-07-28T01:40:11.837Z,100476.98
2022-07-28T01:42:46.865Z,100480.14
2022-07-28T01:45:16.550Z,100480.58
2022-07-28T01:47:47.582Z,100482.95
2022-07-28T01:50:20.432Z,100492.37
2022-07-28T01:52:51.338Z,100486.81
2022-07-28T01:55:23.924Z,100489.64
2022-07-28T01:57:57.213Z,100490.11
2022-07-28T02:00:27.867Z,100489.70
2022-07-28T02:02:58.247Z,100485.66
2022-07-28T02:05:29.735Z,100482.64
2022-07-28T02:08:01.541Z,100481.94
2022-07-28T02:10:31.959Z,100477.74
2022-07-28T02:13:02.396Z,100477.89
2022-07-28T02:15:32.618Z,100478.52
2022-07-28T02:18:02.648Z,100478.67
2022-07-28T02:20:32.610Z,100479.56
2022-07-28T02:23:01.354Z,100479.44
2022-07-28T02:25:31.021Z,100482.80
2022-07-28T02:28:06.684Z,100486.38
2022-07-28T02:31:01.903Z,100487.79
2022-07-28T02:34:00.409Z,100487.73
2022-07-28T02:36:35.380Z,100486.65
2022-07-28T02:39:16.016Z,100488.11
2022-07-28T02:41:44.782Z,100491.55
2022-07-28T02:44:18.512Z,100492.09
2022-07-28T02:46:52.969Z,100494.90
2022-07-28T02:49:42.193Z,100497.71
2022-07-28T02:52:13.989Z,100501.06
2022-07-28T02:54:44.051Z,100506.28
2022-07-28T02:57:14.100Z,100507.10
2022-07-28T02:59:44.152Z,100509.95
2022-07-28T03:02:13.414Z,100516.30
2022-07-28T03:04:58.832Z,100518.42
2022-07-28T03:07:29.916Z,100523.64
2022-07-28T03:10:00.012Z,100526.59
2022-07-28T03:12:28.543Z,100528.83
2022-07-28T03:14:57.036Z,100528.63
2022-07-28T03:17:25.507Z,100531.19
2022-07-28T03:19:54.010Z,100534.19
2022-07-28T03:22:22.496Z,100536.90
2022-07-28T03:24:54.913Z,100541.56
2022-07-28T03:27:31.659Z,100549.23
2022-07-28T03:30:08.806Z,100555.48
2022-07-28T03:32:43.196Z,100553.38
2022-07-28T03:35:13.184Z,100555.58
2022-07-28T03:37:53.678Z,100555.89
2022-07-28T03:40:27.056Z,100556.98
2022-07-28T03:42:58.099Z,100559.59
2022-07-28T03:45:27.181Z,100562.52
2022-07-28T03:47:58.746Z,100564.55
2022-07-28T03:50:31.328Z,100563.50
2022-07-28T03:53:03.221Z,100565.89
2022-07-28T03:55:31.771Z,100565.46
2022-07-28T03:58:01.047Z,100569.73
2022-07-28T04:00:29.628Z,100569.77
2022-07-28T04:02:58.369Z,100567.70
2022-07-28T04:05:26.901Z,100572.63
2022-07-28T04:07:55.413Z,100572.79
2022-07-28T04:10:24.105Z,100575.10
2022-07-28T04:12:58.071Z,100573.95
2022-07-28T04:15:28.699Z,100574.40
2022-07-28T04:17:57.333Z,100576.84
2022-07-28T04:20:28.196Z,100576.81
2022-07-28T04:22:57.030Z,100575.31
2022-07-28T04:25:28.019Z,100572.36
2022-07-28T04:27:56.561Z,100568.98
2022-07-28T04:30:25.638Z,100567.33
2022-07-28T04:32:56.223Z,100566.77
2022-07-28T04:35:26.204Z,100568.21
2022-07-28T04:37:58.492Z,100570.84
2022-07-28T04:40:28.268Z,100569.45
2022-07-28T04:42:56.827Z,100566.64
2022-07-28T04:45:25.630Z,100567.71
2022-07-28T04:47:54.290Z,100570.27
2022-07-28T04:50:22.904Z,100569.33
2022-07-28T04:52:51.575Z,100569.16
2022-07-28T04:55:20.257Z,100566.26
2022-07-28T04:57:48.778Z,100565.67
2022-07-28T05:00:17.574Z,100563.88
2022-07-28T05:02:46.605Z,100564.44
2022-07-28T05:05:15.356Z,100564.39
2022-07-28T05:07:44.365Z,100562.80
2022-07-28T05:10:13.201Z,100565.46
2022-07-28T05:12:41.835Z,100565.52
2022-07-28T05:15:10.554Z,100563.33
2022-07-28T05:17:39.760Z,100565.09
2022-07-28T05:20:09.014Z,100563.45
2022-07-28T05:22:46.496Z,100567.61
2022-07-28T05:25:20.881Z,100575.04
2022-07-28T05:27:51.184Z,100574.77
2022-07-28T05:30:20.918Z,100571.55
2022-07-28T05:32:49.578Z,100573.66
2022-07-28T05:35:18.153Z,100577.91
2022-07-28T05:37:46.736Z,100578.11
2022-07-28T05:40:16.058Z,100580.58
2022-07-28T05:42:47.693Z,100581.95
2022-07-28T05:45:17.633Z,100585.87
2022-07-28T05:47:50.098Z,100585.06
2022-07-28T05:50:22.081Z,100588.69
2022-07-28T05:52:51.477Z,100586.30
2022-07-28T05:55:20.192Z,100586.05
2022-07-28T05:57:48.993Z,100587.80
2022-07-28T06:00:22.271Z,100588.42
2022-07-28T06:02:51.256Z,100593.84
2022-07-28T06:05:22.922Z,100588.80
2022-07-28T06:07:51.768Z,100589.26
2022-07-28T06:10:24.070Z,100595.27
2022-07-28T06:12:57.921Z,100592.98
2022-07-28T06:15:28.316Z,100596.18
2022-07-28T06:17:56.810Z,100589.10
2022-07-28T06:20:27.877Z,100596.81
2022-07-28T06:22:57.340Z,100595.09
2022-07-28T06:25:29.990Z,100597.16
2022-07-28T06:28:03.082Z,100601.45
2022-07-28T06:30:32.607Z,100599.52
2022-07-28T06:33:01.695Z,100600.58
2022-07-28T06:35:30.298Z,100597.95
2022-07-28T06:38:11.852Z,100600.57
2022-07-28T06:40:40.528Z,100600.44
2022-07-28T06:43:09.263Z,100598.71
2022-07-28T06:45:37.864Z,100600.18
2022-07-28T06:48:08.210Z,100600.49
2022-07-28T06:50:39.446Z,100602.67
2022-07-28T06:53:08.096Z,100597.29
2022-07-28T06:55:37.984Z,100598.52
2022-07-28T06:58:06.592Z,100597.39
2022-07-28T07:00:35.267Z,100601.38
2022-07-28T07:03:03.942Z,100602.59
2022-07-28T07:05:32.922Z,100603.81
2022-07-28T07:08:01.591Z,100606.58
2022-07-28T07:10:30.118Z,100607.33
2022-07-28T07:12:58.784Z,100606.25
2022-07-28T07:15:27.613Z,100605.88
2022-07-28T07:17:56.278Z,100609.15
2022-07-28T07:20:24.830Z,100607.48
2022-07-28T07:22:53.440Z,100608.29
2022-07-28T07:25:22.137Z,100609.14
2022-07-28T07:27:50.720Z,100604.82
2022-07-28T07:30:19.237Z,100603.04
2022-07-28T07:32:48.066Z,100603.61
2022-07-28T07:35:16.820Z,100602.08
2022-07-28T07:37:45.366Z,100603.70
2022-07-28T07:40:14.027Z,100607.33
2022-07-28T07:42:42.561Z,100605.70
2022-07-28T07:45:11.392Z,100604.39
2022-07-28T07:47:41.040Z,100605.95
2022-07-28T07:50:09.822Z,100601.73
2022-07-28T07:52:38.537Z,100605.82
2022-07-28T07:55:08.000Z,100604.02
2022-07-28T07:57:36.495Z,100605.89
2022-07-28T08:00:05.995Z,100611.23
2022-07-28T08:02:34.608Z,100609.55
2022-07-28T08:05:03.309Z,100608.29
2022-07-28T08:07:31.901Z,100605.23
2022-07-28T08:10:00.881Z,100603.17
2022-07-28T08:12:29.870Z,100598.57
2022-07-28T08:14:58.563Z,100600.09
2022-07-28T08:17:27.144Z,100597.02
2022-07-28T08:19:56.434Z,100593.17
2022-07-28T08:22:25.122Z,100598.79
2022-07-28T08:24:53.857Z,100597.02
2022-07-28T08:27:22.475Z,100596.20
2022-07-28T08:29:50.964Z,100595.17
2022-07-28T08:32:19.538Z,100593.80
2022-07-28T08:34:48.024Z,100594.61
2022-07-28T08:37:16.594Z,100592.21
2022-07-28T08:39:45.485Z,100589.30
2022-07-28T08:42:53.315Z,100581.48
2022-07-28T08:45:22.527Z,100583.13
2022-07-28T08:48:07.772Z,100583.61
2022-07-28T08:50:39.568Z,100577.02
2022-07-28T08:53:08.877Z,100577.38
2022-07-28T08:55:38.108Z,100580.07
2022-07-28T08:58:07.486Z,100574.46
2022-07-28T09:00:36.068Z,100574.83
2022-07-28T09:03:05.902Z,100576.92
2022-07-28T09:05:35.982Z,100575.93
2022-07-28T09:08:05.787Z,100576.48
2022-07-28T09:10:34.382Z,100574.50
2022-07-28T09:13:02.940Z,100570.90
2022-07-28T09:15:32.945Z,100571.71
2022-07-28T09:18:02.368Z,100569.34
2022-07-28T09:20:31.061Z,100573.09
2022-07-28T09:23:02.502Z,100573.05
2022-07-28T09:25:31.762Z,100569.83
2022-07-28T09:28:26.724Z,100569.14
2022-07-28T09:30:55.334Z,100568.86
2022-07-28T09:33:43.141Z,100567.23
2022-07-28T09:36:16.682Z,100564.26
2022-07-28T09:38:47.472Z,100560.94
2022-07-28T09:41:19.067Z,100562.67
2022-07-28T09:43:54.841Z,100564.39
2022-07-28T09:46:27.418Z,100564.39
2022-07-28T09:49:02.471Z,100561.59
2022-07-28T09:51:35.987Z,100562.17
2022-07-28T09:54:19.739Z,100556.19
2022-07-28T09:56:48.546Z,100553.40
2022-07-28T09:59:19.183Z,100559.05
2022-07-28T10:02:01.809Z,100555.79
2022-07-28T10:04:38.300Z,100553.05
2022-07-28T10:07:11.490Z,100551.55
2022-07-28T10:09:41.352Z,100551.20
2022-07-28T10:12:25.436Z,100552.11
2022-07-28T10:15:00.364Z,100548.71
2022-07-28T10:17:34.550Z,100548.93
2022-07-28T10:20:07.291Z,100546.92
2022-07-28T10:22:43.090Z,100545.44
2022-07-28T10:25:13.090Z,100541.45
2022-07-28T10:27:43.439Z,100541.73
2022-07-28T10:30:13.543Z,100537.30
2022-07-28T10:32:46.425Z,100536.73
2022-07-28T10:35:18.229Z,100536.34
2022-07-28T10:38:16.918Z,100535.66
2022-07-28T10:40:49.692Z,100530.40
2022-07-28T10:43:19.474Z,100527.85
2022-07-28T10:46:06.900Z,100528.39
2022-07-28T10:48:40.439Z,100523.98
2022-07-28T10:51:12.476Z,100525.96
2022-07-28T10:53:54.477Z,100526.23
2022-07-28T10:56:34.310Z,100526.25
2022-07-28T10:59:12.159Z,100523.05
2022-07-28T11:01:50.452Z,100520.06
2022-07-28T11:04:41.149Z,100519.72
2022-07-28T11:07:12.435Z,100515.08
2022-07-28T11:09:41.411Z,100513.31
2022-07-28T11:12:15.408Z,100515.38
2022-07-28T11:14:45.093Z,100515.58
2022-07-28T11:17:24.081Z,100512.24
2022-07-28T11:20:24.906Z,100513.64
2022-07-28T11:22:44.704Z,100513.31
2022-07-28T11:25:20.488Z,100512.65
2022-07-28T11:27:51.894Z,100511.54
2022-07-28T11:30:33.118Z,100514.56
2022-07-28T11:33:07.260Z,100511.97
2022-07-28T11:35:41.791Z,100511.70
2022-07-28T11:38:14.778Z,100507.95
2022-07-28T11:40:46.722Z,100509.63
2022-07-28T11:43:22.556Z,100506.42
2022-07-28T11:46:14.561Z,100502.71
2022-07-28T11:48:45.470Z,100499.53
2022-07-28T11:51:14.661Z,100499.69
2022-07-28T11:53:48.453Z,100499.73
2022-07-28T11:56:29.394Z,100495.27
2022-07-28T11:59:06.194Z,100491.48
2022-07-28T12:01:37.064Z,100493.58
2022-07-28T12:04:16.185Z,100489.41
2022-07-28T12:06:49.459Z,100487.77
2022-07-28T12:09:26.277Z,100484.09
2022-07-28T12:11:56.873Z,100481.58
2022-07-28T12:14:30.168Z,100483.08
2022-07-28T12:16:58.720Z,100479.11
2022-07-28T12:19:32.908Z,100479.67
2022-07-28T12:22:01.802Z,100475.48
2022-07-28T12:24:45.777Z,100470.02
2022-07-28T12:27:16.605Z,100472.84
2022-07-28T12:30:02.150Z,100470.02
2022-07-28T12:32:35.159Z,100472.20
2022-07-28T12:35:05.591Z,100474.80
2022-07-28T12:37:34.275Z,100469.81
2022-07-28T12:40:02.930Z,100467.57
2022-07-28T12:42:32.562Z,100465.21
2022-07-28T12:45:04.899Z,100464.77
2022-07-28T12:47:34.932Z,100464.27
2022-07-28T12:50:19.179Z,100462.77
2022-07-28T12:53:05.758Z,100462.08
2022-07-28T12:55:34.729Z,100465.15
2022-07-28T12:58:04.710Z,100461.95
2022-07-28T13:00:36.537Z,100460.29
2022-07-28T13:03:52.010Z,100459.34
2022-07-28T13:06:22.426Z,100453.50
2022-07-28T13:08:54.537Z,100453.52
2022-07-28T13:11:47.958Z,100449.30
2022-07-28T13:14:16.994Z,100444.26
2022-07-28T13:16:58.116Z,100441.34
2022-07-28T13:19:26.652Z,100442.69
2022-07-28T13:22:01.614Z,100440.38
2022-07-28T13:24:31.867Z,100441.77
2022-07-28T13:27:02.587Z,100444.78
2022-07-28T13:29:35.689Z,100442.40
2022-07-28T13:32:04.639Z,100440.43
2022-07-28T13:34:33.489Z,100437.24
2022-07-28T13:37:02.055Z,100437.02
2022-07-28T13:39:30.712Z,100435.70
2022-07-28T13:41:59.601Z,100436.33
2022-07-28T13:44:37.135Z,100437.55
2022-07-28T13:47:06.467Z,100436.52
2022-07-28T13:49:37.521Z,100435.02
2022-07-28T13:52:12.861Z,100429.41
2022-07-28T13:54:41.588Z,100428.23
2022-07-28T13:57:12.301Z,100425.16
2022-07-28T13:59:44.100Z,100421.70
2022-07-28T14:02:15.752Z,100416.96
2022-07-28T14:04:48.903Z,100419.59
2022-07-28T14:07:19.713Z,100420.98
2022-07-28T14:09:50.911Z,100417.25
2022-07-28T14:12:19.517Z,100418.96
2022-07-28T14:14:48.925Z,100414.80
2022-07-28T14:17:43.755Z,100412.54
2022-07-28T14:20:13.588Z,100412.05
2022-07-28T14:22:44.216Z,100409.90
2022-07-28T14:25:19.777Z,100404.89
2022-07-28T14:27:51.669Z,100402.65
2022-07-28T14:30:22.981Z,100402.05
2022-07-28T14:32:52.733Z,100404.83
2022-07-28T14:35:21.897Z,100400.15
2022-07-28T14:40:40.367Z,100393.98
2022-07-28T14:43:09.593Z,100391.20
2022-07-28T14:46:01.619Z,100390.41
2022-07-28T14:48:27.350Z,100390.75
2022-07-28T14:50:57.213Z,100393.83
2022-07-28T14:53:27.749Z,100394.40
2022-07-28T14:55:57.231Z,100387.64
2022-07-28T15:13:57.821Z,100388.40
2022-07-28T15:16:26.598Z,100385.23
2022-07-28T15:18:55.604Z,100381.20
2022-07-28T15:21:24.236Z,100386.76
2022-07-28T15:23:53.597Z,100380.27
2022-07-28T15:26:22.165Z,100382.76
2022-07-28T15:28:50.776Z,100384.48
2022-07-28T15:31:20.749Z,100378.84
2022-07-28T15:33:54.905Z,100383.30
2022-07-28T15:36:27.074Z,100386.77
2022-07-28T15:38:55.942Z,100380.39
2022-07-28T15:41:24.550Z,100382.05
2022-07-28T15:43:53.129Z,100379.68
2022-07-28T15:46:21.740Z,100373.23
2022-07-28T15:48:50.564Z,100368.72
2022-07-28T15:51:22.619Z,100368.83
2022-07-28T15:53:56.478Z,100369.82
2022-07-28T16:14:18.898Z,100359.85
2022-07-28T16:16:48.169Z,100358.80
2022-07-28T16:19:38.697Z,100356.23
2022-07-28T16:22:05.768Z,100353.90
2022-07-28T16:24:35.950Z,100359.55
2022-07-28T16:27:04.763Z,100359.58
2022-07-28T16:29:33.302Z,100360.17
2022-07-28T16:32:01.876Z,100356.59
2022-07-28T16:34:30.496Z,100350.88
2022-07-28T16:36:59.731Z,100344.89
2022-07-28T16:39:28.297Z,100341.20
2022-07-28T16:41:57.473Z,100340.98
2022-07-28T16:44:26.235Z,100342.20
2022-07-28T16:46:54.766Z,100341.14
2022-07-28T16:49:24.085Z,100339.44
2022-07-28T16:51:52.987Z,100332.71
2022-07-28T16:54:21.717Z,100331.98
2022-07-28T16:56:50.508Z,100334.73
2022-07-28T16:59:19.017Z,100335.42
2022-07-28T17:01:47.643Z,100335.98
2022-07-28T17:04:16.907Z,100332.58
2022-07-28T17:06:47.767Z,100333.72
2022-07-28T17:09:17.544Z,100334.67
2022-07-28T17:11:46.216Z,100331.60
2022-07-28T17:14:17.040Z,100333.08
2022-07-28T17:16:46.316Z,100334.88
2022-07-28T17:19:14.825Z,100337.27
2022-07-28T17:21:43.403Z,100339.84
2022-07-28T17:24:13.443Z,100337.99
2022-07-28T17:29:30.833Z,100328.91
2022-07-28T17:31:59.397Z,100324.45
2022-07-28T17:34:27.986Z,100322.30
2022-07-28T17:36:57.855Z,100322.44
2022-07-28T17:39:26.361Z,100322.07
2022-07-28T17:41:55.861Z,100322.12
2022-07-28T17:44:30.615Z,100324.36
2022-07-28T17:47:03.604Z,100326.58
2022-07-28T17:49:32.330Z,100325.02
2022-07-28T17:52:01.671Z,100322.16
2022-07-28T17:54:50.777Z,100322.54
2022-07-28T17:57:20.447Z,100330.08
2022-07-28T17:59:51.251Z,100326.04
2022-07-28T18:02:20.826Z,100329.77
2022-07-28T18:04:50.295Z,100332.90
2022-07-28T18:07:18.907Z,100333.58
2022-07-28T18:09:47.575Z,100334.89
2022-07-28T18:12:17.359Z,100334.27
2022-07-28T18:14:48.704Z,100334.63
2022-07-28T18:17:27.107Z,100327.84
2022-07-28T18:19:57.569Z,100329.30
2022-07-28T18:22:26.266Z,100331.05
2022-07-28T18:24:54.792Z,100324.83
2022-07-28T18:27:23.305Z,100325.69
2022-07-28T18:29:52.201Z,100322.62
2022-07-28T18:32:20.806Z,100323.70
2022-07-28T18:34:49.322Z,100328.83
2022-07-28T18:37:17.991Z,100328.65
2022-07-28T18:39:46.686Z,100330.88
2022-07-28T18:42:16.516Z,100333.23
2022-07-28T18:44:45.081Z,100332.13
2022-07-28T18:47:13.747Z,100335.58
2022-07-28T18:49:42.333Z,100335.04
2022-07-28T18:52:10.941Z,100337.58
2022-07-28T18:54:39.631Z,100340.45
2022-07-28T18:57:08.159Z,100343.38
2022-07-28T18:59:41.597Z,100349.10
2022-07-28T19:02:14.869Z,100347.52
2022-07-28T19:04:47.243Z,100350.42
2022-07-28T19:07:16.415Z,100356.78
2022-07-28T19:09:45.002Z,100358.18
2022-07-28T19:12:13.731Z,100362.53
2022-07-28T19:14:42.252Z,100362.80
2022-07-28T19:17:11.532Z,100368.52
2022-07-28T19:19:40.117Z,100372.99
2022-07-28T19:22:09.847Z,100376.06
2022-07-28T19:24:38.654Z,100378.61
2022-07-28T19:27:07.323Z,100373.69
2022-07-28T19:29:36.146Z,100374.20
2022-07-28T19:32:06.027Z,100377.96
2022-07-28T19:34:36.107Z,100383.70
2022-07-28T19:37:04.679Z,100389.94
2022-07-28T19:39:34.696Z,100388.14
2022-07-28T19:42:09.036Z,100391.75
2022-07-28T19:44:38.450Z,100390.55
2022-07-28T19:47:07.326Z,100394.23
2022-07-28T19:49:36.055Z,100392.33
2022-07-28T19:52:05.312Z,100397.20
2022-07-28T19:54:33.891Z,100397.55
2022-07-28T19:57:02.489Z,100395.90
2022-07-28T19:59:41.104Z,100395.18
2022-07-28T20:02:09.796Z,100396.81
2022-07-28T20:04:38.914Z,100394.40
2022-07-28T20:07:08.073Z,100396.73
2022-07-28T20:09:36.911Z,100398.13
2022-07-28T20:12:07.827Z,100399.20
2022-07-28T20:14:37.936Z,100399.33
2022-07-28T20:17:07.382Z,100398.70
2022-07-28T20:19:35.985Z,100405.38
2022-07-28T20:22:04.541Z,100401.88
2022-07-28T20:24:33.070Z,100403.11
2022-07-28T20:27:03.815Z,100403.61
2022-07-28T20:29:32.397Z,100408.08
2022-07-28T20:32:01.054Z,100401.66
2022-07-28T20:34:29.871Z,100402.95
2022-07-28T20:36:58.459Z,100406.29
2022-07-28T20:39:44.286Z,100410.71
2022-07-28T20:42:13.416Z,100409.78
2022-07-28T20:44:42.234Z,100408.12
2022-07-28T20:47:10.706Z,100413.46
2022-07-28T20:49:39.484Z,100410.66
2022-07-28T20:52:08.092Z,100411.40
2022-07-28T20:54:36.779Z,100414.31
2022-07-28T20:57:05.453Z,100415.72
2022-07-28T20:59:33.966Z,100412.29
2022-07-28T21:03:28.332Z,100419.01
2022-07-28T21:05:56.890Z,100419.16
2022-07-28T21:08:25.514Z,100423.24
2022-07-28T21:10:56.055Z,100421.66
2022-07-28T21:14:01.820Z,100419.61
2022-07-28T21:16:31.068Z,100421.57
2022-07-28T21:18:59.742Z,100424.46
2022-07-28T21:21:29.087Z,100431.85
2022-07-28T21:23:57.655Z,100436.36
2022-07-28T21:26:26.321Z,100435.45
2022-07-28T21:32:02.137Z,100436.28
2022-07-28T21:34:35.475Z,100437.62
2022-07-28T21:37:06.758Z,100438.57
2022-07-28T21:39:36.685Z,100437.06
2022-07-28T21:42:08.084Z,100443.13
2022-07-28T21:44:37.894Z,100448.05
2022-07-28T21:47:06.642Z,100453.37
2022-07-28T21:49:35.282Z,100453.55
2022-07-28T21:52:04.180Z,100448.71
2022-07-28T21:54:32.703Z,100440.64
2022-07-28T21:57:01.213Z,100438.67
2022-07-28T21:59:34.754Z,100437.80
2022-07-28T22:02:03.409Z,100436.61
2022-07-28T22:04:32.114Z,100437.06
2022-07-28T22:07:00.692Z,100441.36
2022-07-28T22:09:31.834Z,100439.34
2022-07-28T22:12:02.272Z,100439.25
2022-07-28T22:14:32.501Z,100442.45
2022-07-28T22:17:01.952Z,100445.70
2022-07-28T22:19:31.832Z,100447.84
2022-07-28T22:22:00.405Z,100447.55
2022-07-28T22:24:28.985Z,100446.00
2022-07-28T22:26:57.837Z,100452.77
2022-07-28T22:29:26.688Z,100454.34
2022-07-28T22:31:59.857Z,100452.73
2022-07-28T22:34:28.540Z,100449.05
2022-07-28T22:36:57.146Z,100450.80
2022-07-28T22:39:25.681Z,100450.41
2022-07-28T22:41:54.354Z,100446.71
2022-07-28T22:44:22.883Z,100448.84
2022-07-28T22:46:51.888Z,100450.80
2022-07-28T22:49:20.900Z,100448.58
2022-07-28T22:51:50.470Z,100453.52
2022-07-28T22:54:19.058Z,100456.77
2022-07-28T22:56:47.957Z,100456.08
2022-07-28T22:59:17.834Z,100453.38
2022-07-28T23:01:46.622Z,100457.91
2022-07-28T23:04:15.589Z,100456.49
2022-07-28T23:06:44.342Z,100459.48
2022-07-28T23:09:13.391Z,100459.98
2022-07-28T23:11:41.948Z,100461.43
2022-07-28T23:14:24.187Z,100465.13
2022-07-28T23:16:52.906Z,100459.00
2022-07-28T23:19:21.448Z,100459.48
2022-07-28T23:21:50.451Z,100465.02
2022-07-28T23:24:19.257Z,100461.08
2022-07-28T23:26:48.373Z,100462.09
2022-07-28T23:29:16.959Z,100457.86
2022-07-28T23:31:45.533Z,100457.35
2022-07-28T23:34:14.352Z,100455.55
2022-07-28T23:36:43.121Z,100455.59
2022-07-28T23:39:11.669Z,100459.55
2022-07-28T23:41:40.453Z,100457.71
2022-07-28T23:44:09.034Z,100462.16
2022-07-28T23:46:37.743Z,100464.77
2022-07-28T23:49:06.935Z,100462.55
2022-07-28T23:51:47.209Z,100464.02
2022-07-28T23:54:17.662Z,100460.42
2022-07-28T23:56:46.533Z,100459.74
2022-07-28T23:59:15.056Z,100459.82
